BAW7 EGLL-RJTT
Flight info
| Callsign | BAW7 |
|---|---|
| Flight time | N/A |
| Altitude | 33000 |
| Route | DET L6 DVR L9 KONAN UL607 MATUG DCT GUBAX DCT KOMIB L984 SULUS Z650 VEMUT DCT PEPIK DCT BERVA DCT ERGOM DCT BUDOP DCT DVA DCT BULEN DCT RIXEN UA17 YAVRU UA4 SIV UW706 TBN UN61 NOLGA DCT BARAD DCT SUBUT T916 LEYLA/N0489F350 T916 BALUN/K0906F350 T916 MIHOS N147 GENGA DCT SARIN/K0909S1070 A368 OSUPO/K0904S1130 A368 FKG W188 LIKMI W270 DKO W69 HUR B339 LADIX W34 MUGLO/K0891S1190 W34 VAPGU W100 ORAVA W201 UNSEK A326 DONVO G597 AGAVO/N0482F390 Y644 EGOBA Y697 LANAT Y71 XAC |
| Aircraft | A35K/H-SDE2E3GHIJ3J4J5LM1ORWXY/LB1D1 |
Departure
| Time | N/A |
|---|---|
| Airport | London Heathrow Airport (EGLL) |
Arrival
| Time | 2026-05-01 13:36 |
|---|---|
| Airport | Tokyo Haneda International Airport (RJTT) |
| Time | Latitude | Longitude | Altitude | Speed | Heading |
|---|---|---|---|---|---|
| 2026-05-01 11:12 | 38.66190 | 120.15645 | 34926 ft | 511 kts | 211° |
| 2026-05-01 11:13 | 38.62795 | 120.14132 | 34920 ft | 523 kts | 200° |
| 2026-05-01 11:13 | 38.59164 | 120.13410 | 34922 ft | 534 kts | 189° |
| 2026-05-01 11:13 | 38.55419 | 120.13550 | 34926 ft | 543 kts | 177° |
| 2026-05-01 11:13 | 38.51711 | 120.14581 | 34925 ft | 550 kts | 165° |
| 2026-05-01 11:14 | 38.48173 | 120.16501 | 34930 ft | 555 kts | 153° |
| 2026-05-01 11:14 | 38.44951 | 120.19257 | 34933 ft | 559 kts | 140° |
| 2026-05-01 11:14 | 38.42217 | 120.22702 | 34932 ft | 559 kts | 128° |
| 2026-05-01 11:14 | 38.40012 | 120.26767 | 34914 ft | 556 kts | 116° |
| 2026-05-01 11:15 | 38.38514 | 120.31273 | 34930 ft | 549 kts | 101° |
| 2026-05-01 11:15 | 38.37871 | 120.36020 | 34935 ft | 537 kts | 86° |
| 2026-05-01 11:15 | 38.38132 | 120.40688 | 34955 ft | 522 kts | 71° |
| 2026-05-01 11:15 | 38.39083 | 120.45105 | 34930 ft | 513 kts | 64° |
| 2026-05-01 11:16 | 38.41170 | 120.53830 | 34933 ft | 518 kts | 69° |
| 2026-05-01 11:16 | 38.42501 | 120.62942 | 34933 ft | 525 kts | 76° |
| 2026-05-01 11:17 | 38.43283 | 120.72176 | 34934 ft | 528 kts | 78° |
| 2026-05-01 11:17 | 38.43928 | 120.81523 | 34936 ft | 528 kts | 78° |
| 2026-05-01 11:18 | 38.44582 | 120.90808 | 34930 ft | 528 kts | 78° |
| 2026-05-01 11:18 | 38.45261 | 121.00121 | 34934 ft | 527 kts | 78° |
| 2026-05-01 11:19 | 38.45943 | 121.09414 | 34936 ft | 526 kts | 78° |
| 2026-05-01 11:19 | 38.45642 | 121.18810 | 34938 ft | 537 kts | 94° |
| 2026-05-01 11:20 | 38.44258 | 121.28217 | 34935 ft | 539 kts | 97° |
| 2026-05-01 11:20 | 38.42707 | 121.37558 | 34933 ft | 537 kts | 97° |
| 2026-05-01 11:21 | 38.41161 | 121.46827 | 34936 ft | 537 kts | 97° |
| 2026-05-01 11:21 | 38.39618 | 121.56134 | 34938 ft | 536 kts | 97° |
| 2026-05-01 11:22 | 38.38056 | 121.65417 | 34933 ft | 534 kts | 97° |
| 2026-05-01 11:22 | 38.36496 | 121.74681 | 34931 ft | 534 kts | 97° |
| 2026-05-01 11:23 | 38.34933 | 121.83943 | 34936 ft | 533 kts | 97° |
| 2026-05-01 11:23 | 38.33368 | 121.93163 | 34933 ft | 532 kts | 97° |
| 2026-05-01 11:24 | 38.31810 | 122.02308 | 34933 ft | 532 kts | 97° |
| 2026-05-01 11:25 | 38.29443 | 122.16112 | 34931 ft | 531 kts | 97° |
| 2026-05-01 11:25 | 38.27108 | 122.29892 | 34938 ft | 529 kts | 95° |
| 2026-05-01 11:26 | 38.24484 | 122.43540 | 34931 ft | 536 kts | 110° |
| 2026-05-01 11:26 | 38.22673 | 122.47707 | 34934 ft | 542 kts | 121° |
| 2026-05-01 11:27 | 38.20342 | 122.51397 | 34929 ft | 545 kts | 129° |
| 2026-05-01 11:27 | 38.15077 | 122.58393 | 34935 ft | 549 kts | 133° |
| 2026-05-01 11:28 | 38.09648 | 122.65223 | 34934 ft | 548 kts | 133° |
| 2026-05-01 11:28 | 38.04277 | 122.72077 | 34936 ft | 546 kts | 132° |
| 2026-05-01 11:29 | 37.96304 | 122.82411 | 34937 ft | 546 kts | 132° |
| 2026-05-01 11:30 | 37.88326 | 122.92740 | 34936 ft | 545 kts | 132° |
| 2026-05-01 11:30 | 37.83045 | 122.99548 | 34936 ft | 547 kts | 132° |
| 2026-05-01 11:31 | 37.77704 | 123.06417 | 34936 ft | 548 kts | 132° |
| 2026-05-01 11:31 | 37.72352 | 123.13283 | 34936 ft | 548 kts | 132° |
| 2026-05-01 11:32 | 37.67001 | 123.20135 | 34937 ft | 548 kts | 132° |
| 2026-05-01 11:32 | 37.61643 | 123.26980 | 34940 ft | 548 kts | 132° |
| 2026-05-01 11:33 | 37.56404 | 123.33956 | 34940 ft | 545 kts | 125° |
| 2026-05-01 11:33 | 37.51760 | 123.41490 | 34936 ft | 544 kts | 123° |
| 2026-05-01 11:34 | 37.47242 | 123.49083 | 34938 ft | 546 kts | 123° |
| 2026-05-01 11:34 | 37.42694 | 123.56744 | 34940 ft | 546 kts | 123° |
| 2026-05-01 11:35 | 37.38129 | 123.64388 | 34935 ft | 546 kts | 123° |
| 2026-05-01 11:35 | 37.33546 | 123.72023 | 34943 ft | 545 kts | 123° |
| 2026-05-01 11:36 | 37.28975 | 123.79618 | 34938 ft | 544 kts | 123° |
| 2026-05-01 11:36 | 37.24435 | 123.87148 | 34939 ft | 544 kts | 123° |
| 2026-05-01 11:37 | 37.20018 | 123.94856 | 34939 ft | 539 kts | 115° |
| 2026-05-01 11:37 | 37.17384 | 124.03457 | 34930 ft | 520 kts | 95° |
| 2026-05-01 11:37 | 37.17013 | 124.07918 | 34946 ft | 510 kts | 84° |
| 2026-05-01 11:38 | 37.17039 | 124.12358 | 34940 ft | 507 kts | 82° |
| 2026-05-01 11:38 | 37.17362 | 124.21128 | 34928 ft | 506 kts | 80° |
| 2026-05-01 11:39 | 37.17737 | 124.29957 | 34937 ft | 506 kts | 82° |
| 2026-05-01 11:39 | 37.17981 | 124.38799 | 34937 ft | 507 kts | 82° |
| 2026-05-01 11:40 | 37.18148 | 124.46153 | 34939 ft | 507 kts | 82° |
| 2026-05-01 11:40 | 37.18338 | 124.54970 | 34936 ft | 505 kts | 83° |
| 2026-05-01 11:41 | 37.18558 | 124.65213 | 34933 ft | 505 kts | 83° |
| 2026-05-01 11:41 | 37.18716 | 124.72608 | 34934 ft | 505 kts | 83° |
| 2026-05-01 11:42 | 37.18908 | 124.81357 | 34930 ft | 506 kts | 84° |
| 2026-05-01 11:42 | 37.19084 | 124.90194 | 34930 ft | 507 kts | 84° |
| 2026-05-01 11:43 | 37.19251 | 124.99048 | 34928 ft | 507 kts | 84° |
| 2026-05-01 11:43 | 37.19416 | 125.07885 | 34926 ft | 507 kts | 85° |
| 2026-05-01 11:44 | 37.19648 | 125.21145 | 34925 ft | 506 kts | 85° |
| 2026-05-01 11:44 | 37.19794 | 125.29983 | 34923 ft | 507 kts | 86° |
| 2026-05-01 11:45 | 37.19944 | 125.38807 | 34918 ft | 507 kts | 85° |
| 2026-05-01 11:45 | 37.20078 | 125.47654 | 34921 ft | 507 kts | 86° |
| 2026-05-01 11:46 | 37.20207 | 125.56483 | 34920 ft | 508 kts | 86° |
| 2026-05-01 11:46 | 37.20323 | 125.65316 | 34916 ft | 507 kts | 86° |
| 2026-05-01 11:47 | 37.20433 | 125.74150 | 34916 ft | 506 kts | 86° |
| 2026-05-01 11:47 | 37.20536 | 125.82983 | 34914 ft | 507 kts | 87° |
| 2026-05-01 11:48 | 37.20641 | 125.91785 | 34914 ft | 508 kts | 87° |
| 2026-05-01 11:48 | 37.20736 | 126.00663 | 34912 ft | 508 kts | 87° |
| 2026-05-01 11:49 | 37.20827 | 126.09532 | 34904 ft | 508 kts | 87° |
| 2026-05-01 11:49 | 37.20910 | 126.18346 | 34907 ft | 508 kts | 87° |
| 2026-05-01 11:50 | 37.20987 | 126.27212 | 34902 ft | 508 kts | 88° |
| 2026-05-01 11:50 | 37.21056 | 126.36032 | 34893 ft | 508 kts | 88° |
| 2026-05-01 11:51 | 37.21121 | 126.44858 | 34899 ft | 508 kts | 88° |
| 2026-05-01 11:51 | 37.21181 | 126.53802 | 34894 ft | 509 kts | 89° |
| 2026-05-01 11:52 | 37.21225 | 126.62685 | 34885 ft | 509 kts | 89° |
| 2026-05-01 11:52 | 37.21264 | 126.71565 | 34883 ft | 508 kts | 89° |
| 2026-05-01 11:53 | 37.21300 | 126.80406 | 34881 ft | 507 kts | 89° |
| 2026-05-01 11:53 | 37.21349 | 126.89275 | 34885 ft | 508 kts | 87° |
| 2026-05-01 11:54 | 37.22570 | 126.97960 | 34888 ft | 505 kts | 70° |
| 2026-05-01 11:54 | 37.25925 | 127.05649 | 34889 ft | 504 kts | 50° |
| 2026-05-01 11:55 | 37.30465 | 127.12306 | 34882 ft | 504 kts | 47° |
| 2026-05-01 11:55 | 37.35174 | 127.18830 | 34882 ft | 504 kts | 47° |
| 2026-05-01 11:56 | 37.39878 | 127.25379 | 34877 ft | 504 kts | 47° |
| 2026-05-01 11:56 | 37.44557 | 127.31986 | 34872 ft | 506 kts | 48° |
| 2026-05-01 11:57 | 37.48403 | 127.39402 | 34878 ft | 507 kts | 66° |
| 2026-05-01 11:57 | 37.50413 | 127.47843 | 34873 ft | 506 kts | 77° |
| 2026-05-01 11:58 | 37.51824 | 127.56534 | 34871 ft | 507 kts | 79° |
| 2026-05-01 11:59 | 37.53236 | 127.65780 | 34876 ft | 507 kts | 79° |
| 2026-05-01 11:59 | 37.54601 | 127.74522 | 34874 ft | 507 kts | 80° |
| 2026-05-01 12:00 | 37.56653 | 127.87560 | 34868 ft | 508 kts | 80° |
| 2026-05-01 12:01 | 37.58707 | 128.00681 | 34868 ft | 508 kts | 81° |
| 2026-05-01 12:01 | 37.60070 | 128.09439 | 34870 ft | 509 kts | 81° |
| 2026-05-01 12:02 | 37.61431 | 128.18204 | 34866 ft | 509 kts | 80° |
| 2026-05-01 12:02 | 37.62791 | 128.26953 | 34863 ft | 509 kts | 81° |
| 2026-05-01 12:03 | 37.64132 | 128.35732 | 34851 ft | 509 kts | 81° |
| 2026-05-01 12:03 | 37.65457 | 128.44497 | 34852 ft | 509 kts | 81° |
| 2026-05-01 12:04 | 37.66774 | 128.53207 | 34836 ft | 509 kts | 81° |
| 2026-05-01 12:04 | 37.68101 | 128.61994 | 34843 ft | 509 kts | 81° |
| 2026-05-01 12:05 | 37.68933 | 128.70829 | 34836 ft | 503 kts | 94° |
| 2026-05-01 12:05 | 37.67732 | 128.79338 | 34832 ft | 493 kts | 113° |
| 2026-05-01 12:05 | 37.66322 | 128.83257 | 34834 ft | 489 kts | 121° |
| 2026-05-01 12:06 | 37.62895 | 128.90664 | 34823 ft | 488 kts | 124° |
| 2026-05-01 12:06 | 37.59324 | 128.97959 | 34831 ft | 488 kts | 124° |
| 2026-05-01 12:07 | 37.55762 | 129.05264 | 34827 ft | 488 kts | 124° |
| 2026-05-01 12:07 | 37.52224 | 129.12577 | 34809 ft | 488 kts | 124° |
| 2026-05-01 12:08 | 37.48693 | 129.19891 | 34824 ft | 489 kts | 124° |
| 2026-05-01 12:08 | 37.45158 | 129.27200 | 34818 ft | 489 kts | 124° |
| 2026-05-01 12:09 | 37.41643 | 129.34464 | 34815 ft | 489 kts | 124° |
| 2026-05-01 12:09 | 37.38088 | 129.41780 | 34812 ft | 489 kts | 124° |
| 2026-05-01 12:10 | 37.32766 | 129.52699 | 34810 ft | 489 kts | 124° |
| 2026-05-01 12:11 | 37.27426 | 129.63627 | 34809 ft | 489 kts | 125° |
| 2026-05-01 12:11 | 37.23874 | 129.70875 | 34804 ft | 488 kts | 125° |
| 2026-05-01 12:12 | 37.20310 | 129.78134 | 34804 ft | 488 kts | 125° |
| 2026-05-01 12:12 | 37.16742 | 129.85384 | 34801 ft | 488 kts | 125° |
| 2026-05-01 12:13 | 37.13203 | 129.92572 | 34801 ft | 487 kts | 126° |
| 2026-05-01 12:13 | 37.09624 | 129.99803 | 34801 ft | 487 kts | 126° |
| 2026-05-01 12:14 | 37.06048 | 130.07015 | 34797 ft | 487 kts | 126° |
| 2026-05-01 12:14 | 37.02484 | 130.14191 | 34794 ft | 487 kts | 126° |
| 2026-05-01 12:15 | 36.98899 | 130.21397 | 34791 ft | 487 kts | 126° |
| 2026-05-01 12:15 | 36.95312 | 130.28590 | 34787 ft | 487 kts | 126° |
| 2026-05-01 12:16 | 36.91744 | 130.35731 | 34788 ft | 486 kts | 126° |
| 2026-05-01 12:16 | 36.88146 | 130.42916 | 34785 ft | 486 kts | 126° |
| 2026-05-01 12:17 | 36.84574 | 130.50033 | 34772 ft | 487 kts | 127° |
| 2026-05-01 12:17 | 36.80965 | 130.57208 | 34783 ft | 487 kts | 127° |
| 2026-05-01 12:18 | 36.77354 | 130.64374 | 34786 ft | 487 kts | 127° |
| 2026-05-01 12:18 | 36.73739 | 130.71537 | 34775 ft | 487 kts | 127° |
| 2026-05-01 12:19 | 36.70142 | 130.78647 | 34774 ft | 487 kts | 127° |
| 2026-05-01 12:19 | 36.66520 | 130.85787 | 34770 ft | 487 kts | 127° |
| 2026-05-01 12:20 | 36.62891 | 130.92930 | 34769 ft | 487 kts | 127° |
| 2026-05-01 12:20 | 36.59259 | 131.00063 | 34770 ft | 487 kts | 127° |
| 2026-05-01 12:21 | 36.55648 | 131.07139 | 34773 ft | 487 kts | 127° |
| 2026-05-01 12:21 | 36.52010 | 131.14254 | 34752 ft | 487 kts | 128° |
| 2026-05-01 12:22 | 36.48983 | 131.20165 | 34764 ft | 486 kts | 128° |
| 2026-05-01 12:22 | 36.44724 | 131.28458 | 34759 ft | 486 kts | 128° |
| 2026-05-01 12:23 | 36.41102 | 131.35498 | 34737 ft | 486 kts | 129° |
| 2026-05-01 12:23 | 36.37591 | 131.42729 | 34760 ft | 492 kts | 122° |
| 2026-05-01 12:24 | 36.35025 | 131.50682 | 34752 ft | 498 kts | 116° |
| 2026-05-01 12:24 | 36.32717 | 131.58737 | 34739 ft | 499 kts | 116° |
| 2026-05-01 12:25 | 36.29266 | 131.70920 | 34741 ft | 500 kts | 116° |
| 2026-05-01 12:26 | 36.26935 | 131.79035 | 34715 ft | 499 kts | 117° |
| 2026-05-01 12:26 | 36.23427 | 131.91146 | 34721 ft | 500 kts | 117° |
| 2026-05-01 12:27 | 36.20280 | 132.01962 | 34721 ft | 500 kts | 117° |
| 2026-05-01 12:28 | 36.16701 | 132.14118 | 34718 ft | 502 kts | 118° |
| 2026-05-01 12:29 | 36.13162 | 132.26256 | 34716 ft | 503 kts | 119° |
| 2026-05-01 12:29 | 36.09578 | 132.38464 | 34708 ft | 501 kts | 118° |
| 2026-05-01 12:30 | 36.06000 | 132.50570 | 34706 ft | 501 kts | 119° |
| 2026-05-01 12:31 | 36.03597 | 132.58659 | 34704 ft | 501 kts | 119° |
| 2026-05-01 12:31 | 36.01190 | 132.66743 | 34695 ft | 501 kts | 120° |
| 2026-05-01 12:32 | 35.98772 | 132.74840 | 34707 ft | 501 kts | 120° |
| 2026-05-01 12:32 | 35.95153 | 132.86919 | 34705 ft | 501 kts | 120° |
| 2026-05-01 12:33 | 35.92725 | 132.94994 | 34705 ft | 501 kts | 120° |
| 2026-05-01 12:33 | 35.90307 | 133.03015 | 34664 ft | 501 kts | 121° |
| 2026-05-01 12:34 | 35.87874 | 133.11063 | 34701 ft | 501 kts | 121° |
| 2026-05-01 12:34 | 35.85433 | 133.19112 | 34703 ft | 501 kts | 121° |
| 2026-05-01 12:35 | 35.82979 | 133.27177 | 34694 ft | 501 kts | 122° |
| 2026-05-01 12:35 | 35.80537 | 133.35184 | 34700 ft | 501 kts | 122° |
| 2026-05-01 12:36 | 35.78074 | 133.43236 | 34643 ft | 501 kts | 122° |
| 2026-05-01 12:36 | 35.75621 | 133.51220 | 34700 ft | 502 kts | 122° |
| 2026-05-01 12:37 | 35.73144 | 133.59276 | 34699 ft | 503 kts | 122° |
| 2026-05-01 12:37 | 35.70662 | 133.67333 | 34694 ft | 502 kts | 123° |
| 2026-05-01 12:38 | 35.68172 | 133.75368 | 34701 ft | 502 kts | 123° |
| 2026-05-01 12:38 | 35.65696 | 133.83361 | 34650 ft | 502 kts | 123° |
| 2026-05-01 12:39 | 35.63203 | 133.91401 | 34694 ft | 503 kts | 123° |
| 2026-05-01 12:39 | 35.60694 | 133.99447 | 34691 ft | 503 kts | 123° |
| 2026-05-01 12:40 | 35.58186 | 134.07467 | 34628 ft | 504 kts | 124° |
| 2026-05-01 12:40 | 35.55677 | 134.15464 | 34636 ft | 504 kts | 124° |
| 2026-05-01 12:41 | 35.53152 | 134.23500 | 34601 ft | 504 kts | 124° |
| 2026-05-01 12:41 | 35.50617 | 134.31536 | 34640 ft | 505 kts | 124° |
| 2026-05-01 12:42 | 35.48066 | 134.39584 | 34654 ft | 505 kts | 124° |
| 2026-05-01 12:42 | 35.45521 | 134.47621 | 34673 ft | 504 kts | 125° |
| 2026-05-01 12:43 | 35.42988 | 134.55609 | 34687 ft | 504 kts | 125° |
| 2026-05-01 12:43 | 35.40436 | 134.63618 | 34657 ft | 505 kts | 124° |
| 2026-05-01 12:44 | 35.37866 | 134.71648 | 34676 ft | 506 kts | 124° |
| 2026-05-01 12:45 | 35.32721 | 134.87698 | 34686 ft | 506 kts | 125° |
| 2026-05-01 12:45 | 35.30140 | 134.95719 | 34679 ft | 506 kts | 125° |
| 2026-05-01 12:46 | 35.27560 | 135.03737 | 34652 ft | 506 kts | 125° |
| 2026-05-01 12:46 | 35.24975 | 135.11696 | 34686 ft | 507 kts | 125° |
| 2026-05-01 12:47 | 35.22372 | 135.19715 | 34678 ft | 507 kts | 125° |
| 2026-05-01 12:47 | 35.19758 | 135.27735 | 34677 ft | 507 kts | 125° |
| 2026-05-01 12:48 | 35.17138 | 135.35745 | 34685 ft | 508 kts | 125° |
| 2026-05-01 12:48 | 35.14525 | 135.43726 | 34691 ft | 508 kts | 125° |
| 2026-05-01 12:49 | 35.11892 | 135.51756 | 34693 ft | 509 kts | 124° |
| 2026-05-01 12:49 | 35.09249 | 135.59788 | 34696 ft | 510 kts | 124° |
| 2026-05-01 12:50 | 35.06597 | 135.67841 | 34708 ft | 510 kts | 124° |
| 2026-05-01 12:50 | 35.03951 | 135.75817 | 34701 ft | 511 kts | 124° |
| 2026-05-01 12:51 | 35.01550 | 135.84085 | 34721 ft | 527 kts | 115° |
| 2026-05-01 12:52 | 34.99265 | 135.97296 | 34705 ft | 532 kts | 112° |
| 2026-05-01 12:52 | 34.97159 | 136.10550 | 34728 ft | 532 kts | 112° |
| 2026-05-01 12:53 | 34.94999 | 136.23797 | 34745 ft | 533 kts | 112° |
| 2026-05-01 12:54 | 34.93531 | 136.32687 | 34738 ft | 535 kts | 112° |
| 2026-05-01 12:54 | 34.91321 | 136.45998 | 34740 ft | 536 kts | 112° |
| 2026-05-01 12:55 | 34.89088 | 136.59371 | 34701 ft | 536 kts | 111° |
| 2026-05-01 12:56 | 34.87602 | 136.68254 | 34721 ft | 533 kts | 112° |
| 2026-05-01 12:56 | 34.86104 | 136.77107 | 34716 ft | 533 kts | 112° |
| 2026-05-01 12:57 | 34.84598 | 136.85954 | 34718 ft | 532 kts | 112° |
| 2026-05-01 12:57 | 34.82411 | 136.99164 | 34741 ft | 536 kts | 109° |
| 2026-05-01 12:58 | 34.81419 | 137.08226 | 34742 ft | 541 kts | 106° |
| 2026-05-01 12:59 | 34.80058 | 137.21821 | 34744 ft | 541 kts | 107° |
| 2026-05-01 12:59 | 34.78562 | 137.35331 | 34755 ft | 540 kts | 107° |
| 2026-05-01 13:00 | 34.76995 | 137.48995 | 34764 ft | 541 kts | 107° |
| 2026-05-01 13:01 | 34.75424 | 137.62599 | 34765 ft | 541 kts | 107° |
| 2026-05-01 13:02 | 34.73940 | 137.76189 | 34782 ft | 544 kts | 105° |
| 2026-05-01 13:07 | 34.71581 | 138.72189 | 25824 ft | 512 kts | 95° |
| 2026-05-01 13:07 | 34.71575 | 138.76455 | 25228 ft | 507 kts | 95° |
| 2026-05-01 13:07 | 34.71568 | 138.80723 | 24640 ft | 501 kts | 95° |
| 2026-05-01 13:08 | 34.71556 | 138.84924 | 24090 ft | 494 kts | 95° |
| 2026-05-01 13:08 | 34.71538 | 138.89050 | 23496 ft | 488 kts | 94° |
| 2026-05-01 13:08 | 34.71525 | 138.93158 | 22857 ft | 482 kts | 94° |
| 2026-05-01 13:08 | 34.71512 | 138.97208 | 22282 ft | 475 kts | 94° |
| 2026-05-01 13:09 | 34.71494 | 139.01191 | 21715 ft | 468 kts | 94° |
| 2026-05-01 13:09 | 34.71471 | 139.05074 | 21165 ft | 461 kts | 94° |
| 2026-05-01 13:09 | 34.71448 | 139.08942 | 20622 ft | 455 kts | 94° |
| 2026-05-01 13:09 | 34.71425 | 139.12772 | 20068 ft | 450 kts | 95° |
| 2026-05-01 13:10 | 34.71400 | 139.16570 | 19507 ft | 446 kts | 95° |
| 2026-05-01 13:10 | 34.71377 | 139.20324 | 18947 ft | 441 kts | 94° |
| 2026-05-01 13:10 | 34.71355 | 139.24051 | 18365 ft | 439 kts | 94° |
| 2026-05-01 13:10 | 34.71332 | 139.27762 | 17784 ft | 437 kts | 94° |
| 2026-05-01 13:11 | 34.71304 | 139.31438 | 17197 ft | 432 kts | 95° |
| 2026-05-01 13:11 | 34.71276 | 139.35023 | 16622 ft | 427 kts | 94° |
| 2026-05-01 13:11 | 34.71251 | 139.38605 | 16107 ft | 421 kts | 94° |
| 2026-05-01 13:11 | 34.71223 | 139.42138 | 15703 ft | 417 kts | 94° |
| 2026-05-01 13:12 | 34.71046 | 139.45650 | 15165 ft | 414 kts | 100° |
| 2026-05-01 13:12 | 34.70746 | 139.49116 | 14579 ft | 410 kts | 101° |
| 2026-05-01 13:12 | 34.70439 | 139.52545 | 14283 ft | 407 kts | 100° |
| 2026-05-01 13:12 | 34.70155 | 139.55912 | 14148 ft | 391 kts | 102° |
| 2026-05-01 13:13 | 34.69894 | 139.59127 | 13968 ft | 375 kts | 102° |
| 2026-05-01 13:13 | 34.69793 | 139.62243 | 13955 ft | 371 kts | 93° |
| 2026-05-01 13:13 | 34.70018 | 139.64380 | 13940 ft | 398 kts | 83° |
| 2026-05-01 13:13 | 34.71082 | 139.67640 | 13913 ft | 432 kts | 62° |
| 2026-05-01 13:14 | 34.73026 | 139.70479 | 13844 ft | 443 kts | 43° |
| 2026-05-01 13:14 | 34.75401 | 139.72843 | 13589 ft | 435 kts | 38° |
| 2026-05-01 13:14 | 34.77845 | 139.74994 | 12719 ft | 434 kts | 37° |
| 2026-05-01 13:14 | 34.80340 | 139.77074 | 12143 ft | 433 kts | 36° |
| 2026-05-01 13:15 | 34.82857 | 139.79111 | 11886 ft | 434 kts | 35° |
| 2026-05-01 13:15 | 34.85346 | 139.81092 | 11643 ft | 431 kts | 35° |
| 2026-05-01 13:15 | 34.87856 | 139.83072 | 11414 ft | 429 kts | 35° |
| 2026-05-01 13:15 | 34.90362 | 139.85039 | 11159 ft | 427 kts | 35° |
| 2026-05-01 13:16 | 34.92810 | 139.86954 | 10640 ft | 404 kts | 35° |
| 2026-05-01 13:16 | 34.95082 | 139.88724 | 10229 ft | 375 kts | 35° |
| 2026-05-01 13:16 | 34.97209 | 139.90386 | 9873 ft | 349 kts | 35° |
| 2026-05-01 13:17 | 35.02973 | 139.94888 | 8036 ft | 315 kts | 36° |
| 2026-05-01 13:17 | 35.04794 | 139.96323 | 7430 ft | 309 kts | 37° |
| 2026-05-01 13:18 | 35.08389 | 139.99133 | 7067 ft | 305 kts | 38° |
| 2026-05-01 13:18 | 35.10171 | 140.00536 | 7069 ft | 304 kts | 38° |
| 2026-05-01 13:18 | 35.11945 | 140.01937 | 7066 ft | 302 kts | 37° |
| 2026-05-01 13:18 | 35.13695 | 140.03330 | 7079 ft | 303 kts | 37° |
| 2026-05-01 13:19 | 35.15484 | 140.04739 | 7075 ft | 306 kts | 35° |
| 2026-05-01 13:19 | 35.17269 | 140.06150 | 7076 ft | 304 kts | 37° |
| 2026-05-01 13:19 | 35.20854 | 140.08933 | 7078 ft | 305 kts | 37° |
| 2026-05-01 13:20 | 35.22644 | 140.10337 | 7082 ft | 305 kts | 39° |
| 2026-05-01 13:20 | 35.24435 | 140.11734 | 7066 ft | 304 kts | 39° |
| 2026-05-01 13:20 | 35.26215 | 140.13140 | 7079 ft | 304 kts | 38° |
| 2026-05-01 13:21 | 35.29741 | 140.15929 | 7081 ft | 304 kts | 39° |
| 2026-05-01 13:21 | 35.31514 | 140.17338 | 7077 ft | 304 kts | 39° |
| 2026-05-01 13:21 | 35.33294 | 140.18749 | 7090 ft | 304 kts | 38° |
| 2026-05-01 13:21 | 35.35093 | 140.20141 | 7079 ft | 305 kts | 34° |
| 2026-05-01 13:22 | 35.37061 | 140.21168 | 7083 ft | 310 kts | 18° |
| 2026-05-01 13:22 | 35.39180 | 140.21460 | 7091 ft | 313 kts | 357° |
| 2026-05-01 13:22 | 35.41349 | 140.21149 | 7086 ft | 314 kts | 351° |
| 2026-05-01 13:22 | 35.43511 | 140.20703 | 7085 ft | 315 kts | 350° |
| 2026-05-01 13:23 | 35.45670 | 140.20247 | 7062 ft | 314 kts | 349° |
| 2026-05-01 13:23 | 35.47821 | 140.19775 | 6953 ft | 314 kts | 349° |
| 2026-05-01 13:23 | 35.49974 | 140.19309 | 6842 ft | 314 kts | 350° |
| 2026-05-01 13:23 | 35.52132 | 140.18857 | 6721 ft | 315 kts | 350° |
| 2026-05-01 13:24 | 35.54289 | 140.18384 | 6457 ft | 315 kts | 350° |
| 2026-05-01 13:24 | 35.56416 | 140.17912 | 6038 ft | 313 kts | 351° |
| 2026-05-01 13:24 | 35.58542 | 140.17443 | 5684 ft | 307 kts | 351° |
| 2026-05-01 13:25 | 35.62708 | 140.16529 | 4907 ft | 300 kts | 352° |
| 2026-05-01 13:25 | 35.64752 | 140.16081 | 4558 ft | 294 kts | 352° |
| 2026-05-01 13:25 | 35.66749 | 140.15604 | 4202 ft | 291 kts | 347° |
| 2026-05-01 13:25 | 35.68662 | 140.14737 | 4102 ft | 294 kts | 336° |
| 2026-05-01 13:26 | 35.70501 | 140.13706 | 4090 ft | 295 kts | 336° |
| 2026-05-01 13:26 | 35.72366 | 140.12643 | 4094 ft | 295 kts | 336° |
| 2026-05-01 13:26 | 35.74232 | 140.11582 | 4094 ft | 295 kts | 336° |
| 2026-05-01 13:26 | 35.76102 | 140.10522 | 4100 ft | 295 kts | 336° |
| 2026-05-01 13:27 | 35.77964 | 140.09466 | 4102 ft | 295 kts | 336° |
| 2026-05-01 13:27 | 35.79818 | 140.08397 | 4101 ft | 295 kts | 334° |
| 2026-05-01 13:27 | 35.81980 | 140.04802 | 4117 ft | 243 kts | 267° |
| 2026-05-01 13:28 | 35.81298 | 140.01181 | 4118 ft | 208 kts | 245° |
| 2026-05-01 13:28 | 35.80783 | 139.99538 | 4118 ft | 203 kts | 234° |
| 2026-05-01 13:29 | 35.79061 | 139.96936 | 4131 ft | 191 kts | 208° |
| 2026-05-01 13:29 | 35.76887 | 139.95120 | 4103 ft | 185 kts | 207° |
| 2026-05-01 13:30 | 35.72994 | 139.91732 | 4030 ft | 169 kts | 207° |
| 2026-05-01 13:31 | 35.71064 | 139.90063 | 3521 ft | 169 kts | 206° |
| 2026-05-01 13:31 | 35.68267 | 139.87642 | 2828 ft | 153 kts | 206° |
| 2026-05-01 13:32 | 35.66542 | 139.86155 | 2437 ft | 152 kts | 205° |
| 2026-05-01 13:33 | 35.64050 | 139.84001 | 1836 ft | 137 kts | 205° |
| 2026-05-01 13:33 | 35.62492 | 139.82663 | 1471 ft | 137 kts | 207° |
| 2026-05-01 13:34 | 35.60942 | 139.81325 | 1101 ft | 137 kts | 210° |
| 2026-05-01 13:34 | 35.59370 | 139.79982 | 576 ft | 137 kts | 217° |
| 2026-05-01 13:35 | 35.57782 | 139.78595 | 308 ft | 141 kts | 219° |
| 2026-05-01 13:35 | 35.56981 | 139.77906 | 104 ft | 139 kts | 218° |
| 2026-05-01 13:35 | 35.55665 | 139.76782 | 31 ft | 51 kts | 214° |
| 2026-05-01 13:36 | 35.55565 | 139.76704 | 31 ft | 10 kts | 208° |
| 2026-05-01 13:36 | 35.55434 | 139.76646 | 31 ft | 23 kts | 194° |
| 2026-05-01 13:36 | 35.55149 | 139.76667 | 29 ft | 18 kts | 94° |
| 2026-05-01 13:37 | 35.55200 | 139.76809 | 29 ft | 19 kts | 59° |
| 2026-05-01 13:37 | 35.55263 | 139.76942 | 29 ft | 12 kts | 61° |
| 2026-05-01 13:37 | 35.55251 | 139.77037 | 29 ft | 13 kts | 127° |
| 2026-05-01 13:37 | 35.55172 | 139.77107 | 29 ft | 15 kts | 149° |
| 2026-05-01 13:38 | 35.54953 | 139.77263 | 29 ft | 21 kts | 150° |
| 2026-05-01 13:38 | 35.54878 | 139.77307 | 29 ft | 8 kts | 172° |
| 2026-05-01 13:38 | 35.54822 | 139.77281 | 29 ft | 8 kts | 226° |
| 2026-05-01 13:39 | 35.54795 | 139.77229 | 29 ft | 0 kts | 240° |
| 2026-05-01 13:39 | 35.54797 | 139.77220 | 29 ft | 2 kts | 276° |
| 2026-05-01 13:40 | 35.54797 | 139.77215 | 29 ft | 0 kts | 277° |
| 2026-05-01 13:40 | 35.54799 | 139.77212 | 29 ft | 2 kts | 290° |
| 2026-05-01 13:40 | 35.54831 | 139.77175 | 29 ft | 0 kts | 329° |
| 2026-05-01 13:41 | 35.54832 | 139.77174 | 29 ft | 0 kts | 329° |